createdAt,value
2022-12-25T00:52:47.738Z,5.93
2022-12-25T00:55:16.978Z,6.72
2022-12-25T00:57:46.110Z,6.78
2022-12-25T01:00:16.622Z,7.25
2022-12-25T01:02:45.868Z,8.60
2022-12-25T01:05:15.393Z,10.10
2022-12-25T01:07:46.038Z,12.07
2022-12-25T01:10:23.032Z,9.13
2022-12-25T01:12:52.974Z,10.38
2022-12-25T01:15:22.264Z,7.38
2022-12-25T01:17:51.371Z,9.57
2022-12-25T01:20:20.793Z,7.45
2022-12-25T01:22:51.422Z,6.63
2022-12-25T01:25:20.556Z,7.95
2022-12-25T01:27:49.636Z,7.82
2022-12-25T01:30:18.933Z,8.77
2022-12-25T01:32:48.032Z,7.53
2022-12-25T01:35:17.266Z,9.38
2022-12-25T01:37:46.402Z,8.32
2022-12-25T01:40:17.049Z,7.43
2022-12-25T01:42:46.156Z,7.50
2022-12-25T01:45:44.455Z,10.40
2022-12-25T01:48:18.439Z,6.63
2022-12-25T01:50:51.574Z,7.93
2022-12-25T01:53:20.776Z,12.48
2022-12-25T01:55:55.953Z,13.20
2022-12-25T01:58:25.722Z,12.48
2022-12-25T02:00:55.549Z,14.82
2022-12-25T02:03:25.199Z,12.20
2022-12-25T02:05:54.975Z,10.88
2022-12-25T02:08:25.088Z,9.48
2022-12-25T02:10:55.983Z,10.32
2022-12-25T02:13:25.173Z,11.82
2022-12-25T02:16:03.246Z,10.82
2022-12-25T02:18:41.036Z,9.48
2022-12-25T02:21:45.950Z,10.20
2022-12-25T02:24:51.884Z,10.68
2022-12-25T02:27:37.259Z,9.25
2022-12-25T02:30:11.104Z,8.75
2022-12-25T02:32:47.886Z,10.10
2022-12-25T02:35:19.657Z,8.57
2022-12-25T02:37:57.525Z,12.45
2022-12-25T02:40:32.014Z,9.43
2022-12-25T02:43:20.767Z,8.48
2022-12-25T02:46:12.481Z,12.95
2022-12-25T02:49:03.932Z,10.40
2022-12-25T02:51:54.083Z,12.68
2022-12-25T02:54:45.736Z,9.25
2022-12-25T02:57:35.537Z,10.82
2022-12-25T03:00:23.694Z,12.23
2022-12-25T03:03:13.969Z,10.73
2022-12-25T03:06:01.825Z,13.75
2022-12-25T03:08:33.334Z,14.43
2022-12-25T03:11:22.172Z,15.65
2022-12-25T03:13:53.833Z,13.18
2022-12-25T03:16:41.092Z,12.00
2022-12-25T03:19:25.334Z,9.65
2022-12-25T03:22:13.168Z,8.63
2022-12-25T03:25:11.774Z,8.50
2022-12-25T03:27:43.601Z,9.50
2022-12-25T03:30:30.350Z,10.57
2022-12-25T03:33:23.288Z,9.20
2022-12-25T03:36:05.055Z,9.68
2022-12-25T03:39:00.575Z,9.90
2022-12-25T03:41:57.284Z,10.63
2022-12-25T03:44:47.203Z,11.27
2022-12-25T03:47:37.336Z,12.52
2022-12-25T03:50:31.553Z,13.60
2022-12-25T03:53:23.680Z,16.55
2022-12-25T03:56:12.132Z,17.90
2022-12-25T03:59:10.774Z,14.20
2022-12-25T04:01:56.854Z,16.27
2022-12-25T04:04:43.360Z,17.23
2022-12-25T04:07:29.268Z,14.50
2022-12-25T04:10:17.033Z,12.93
2022-12-25T04:13:03.171Z,14.57
2022-12-25T04:15:49.045Z,17.25
2022-12-25T04:18:35.173Z,16.75
2022-12-25T04:21:21.233Z,10.18
2022-12-25T04:24:07.238Z,11.07
2022-12-25T04:27:06.436Z,8.35
2022-12-25T04:29:52.596Z,9.15
2022-12-25T04:32:38.865Z,12.60
2022-12-25T04:35:25.466Z,11.95
2022-12-25T04:37:54.771Z,12.35
2022-12-25T04:40:23.864Z,13.80
2022-12-25T04:42:55.001Z,12.60
2022-12-25T04:45:24.143Z,14.98
2022-12-25T04:47:53.303Z,14.65
2022-12-25T04:50:22.561Z,14.98
2022-12-25T04:52:51.780Z,10.43
2022-12-25T04:55:20.949Z,10.60
2022-12-25T04:57:50.043Z,11.02
2022-12-25T05:00:21.419Z,10.82
2022-12-25T05:02:50.671Z,13.10
2022-12-25T05:05:20.159Z,11.82
2022-12-25T05:07:49.517Z,12.75
2022-12-25T05:10:19.525Z,10.55
2022-12-25T05:12:48.655Z,10.93
2022-12-25T05:15:17.925Z,12.10
2022-12-25T05:17:48.559Z,10.52
2022-12-25T05:20:17.779Z,11.48
2022-12-25T05:22:46.922Z,13.43
2022-12-25T05:25:16.114Z,12.88
2022-12-25T05:27:48.806Z,13.25
2022-12-25T05:30:22.887Z,14.25
2022-12-25T05:32:53.469Z,12.13
2022-12-25T05:35:23.690Z,10.02
2022-12-25T05:37:52.846Z,13.00
2022-12-25T05:40:21.962Z,12.55
2022-12-25T05:42:51.395Z,12.10
2022-12-25T05:45:20.650Z,14.70
2022-12-25T05:47:49.766Z,11.52
2022-12-25T05:50:20.584Z,10.43
2022-12-25T05:52:49.788Z,12.70
2022-12-25T05:55:19.064Z,13.57
2022-12-25T05:57:48.152Z,13.30
2022-12-25T06:00:17.765Z,12.18
2022-12-25T06:02:47.096Z,12.38
2022-12-25T06:05:16.396Z,11.55
2022-12-25T06:07:47.038Z,11.13
2022-12-25T06:10:16.490Z,11.77
2022-12-25T06:12:45.681Z,14.23
2022-12-25T06:15:14.805Z,15.40
2022-12-25T06:17:44.026Z,14.77
2022-12-25T06:20:13.418Z,12.25
2022-12-25T06:22:42.665Z,13.10
2022-12-25T06:25:13.821Z,17.27
2022-12-25T06:27:43.066Z,14.63
2022-12-25T06:30:12.860Z,13.05
2022-12-25T06:32:42.068Z,11.80
2022-12-25T06:35:11.552Z,12.23
2022-12-25T06:37:40.780Z,13.27
2022-12-25T06:40:11.001Z,12.25
2022-12-25T06:42:41.695Z,15.63
2022-12-25T06:45:11.626Z,15.35
2022-12-25T06:47:40.771Z,14.93
2022-12-25T06:50:10.427Z,14.52
2022-12-25T06:52:39.632Z,12.73
2022-12-25T06:55:09.492Z,16.13
2022-12-25T06:57:38.876Z,19.90
2022-12-25T07:00:11.204Z,14.48
2022-12-25T07:02:40.579Z,14.45
2022-12-25T07:05:10.279Z,17.08
2022-12-25T07:07:39.373Z,18.40
2022-12-25T07:10:09.784Z,17.20
2022-12-25T07:12:38.898Z,15.85
2022-12-25T07:15:11.288Z,15.80
2022-12-25T07:17:40.376Z,13.25
2022-12-25T07:20:10.717Z,12.85
2022-12-25T07:22:39.820Z,12.88
2022-12-25T07:25:09.575Z,11.18
2022-12-25T07:27:38.689Z,11.93
2022-12-25T07:30:10.850Z,13.23
2022-12-25T07:32:39.980Z,11.95
2022-12-25T07:35:09.728Z,12.95
2022-12-25T07:37:38.895Z,13.45
2022-12-25T07:40:09.443Z,13.10
2022-12-25T07:42:38.617Z,13.68
2022-12-25T07:45:10.294Z,13.23
2022-12-25T07:47:39.463Z,12.35
2022-12-25T07:50:09.810Z,13.38
2022-12-25T07:52:43.396Z,11.52
2022-12-25T07:55:13.159Z,11.35
2022-12-25T07:57:42.650Z,10.90
2022-12-25T08:00:15.314Z,11.60
2022-12-25T08:02:44.757Z,11.98
2022-12-25T08:05:14.266Z,8.85
2022-12-25T08:07:43.353Z,8.77
2022-12-25T08:10:13.208Z,10.90
2022-12-25T08:12:42.302Z,7.80
2022-12-25T08:15:14.380Z,9.02
2022-12-25T08:17:43.553Z,7.50
2022-12-25T08:20:13.324Z,9.88
2022-12-25T08:22:42.485Z,9.07
2022-12-25T08:25:12.076Z,8.15
2022-12-25T08:27:41.205Z,11.30
2022-12-25T08:30:11.477Z,13.15
2022-12-25T08:32:42.213Z,9.82
2022-12-25T08:35:11.682Z,8.57
2022-12-25T08:37:41.058Z,7.53
2022-12-25T08:40:11.356Z,9.88
2022-12-25T08:42:40.522Z,8.27
2022-12-25T08:45:10.909Z,8.73
2022-12-25T08:47:41.527Z,8.07
2022-12-25T08:50:11.536Z,9.80
2022-12-25T08:52:41.060Z,8.70
2022-12-25T08:55:10.778Z,9.05
2022-12-25T08:57:40.002Z,9.73
2022-12-25T09:00:10.831Z,9.88
2022-12-25T09:02:41.681Z,11.07
2022-12-25T09:05:11.697Z,10.25
2022-12-25T09:07:40.919Z,8.60
2022-12-25T09:10:11.030Z,6.05
2022-12-25T09:12:40.160Z,6.85
2022-12-25T09:15:09.992Z,7.28
2022-12-25T09:17:39.247Z,8.88
2022-12-25T09:20:10.710Z,11.13
2022-12-25T09:22:39.953Z,7.20
2022-12-25T09:25:09.690Z,10.55
2022-12-25T09:27:38.930Z,10.63
2022-12-25T09:30:09.699Z,8.68
2022-12-25T09:32:40.602Z,7.03
2022-12-25T09:35:11.710Z,8.32
2022-12-25T09:37:40.948Z,7.18
2022-12-25T09:40:12.219Z,6.85
2022-12-25T09:42:41.988Z,7.25
2022-12-25T09:45:17.346Z,8.57
2022-12-25T09:47:49.850Z,13.90
2022-12-25T09:50:25.620Z,11.45
2022-12-25T09:53:00.384Z,10.15
2022-12-25T09:55:32.618Z,5.68
2022-12-25T09:58:13.123Z,7.78
2022-12-25T10:00:45.266Z,7.45
2022-12-25T10:03:35.056Z,7.65
2022-12-25T10:06:18.919Z,8.55
2022-12-25T10:09:23.701Z,6.90
2022-12-25T10:12:04.476Z,6.82
2022-12-25T10:14:41.685Z,6.28
2022-12-25T10:17:28.152Z,5.80
2022-12-25T10:20:08.848Z,6.72
2022-12-25T10:22:42.995Z,7.18
2022-12-25T10:25:19.053Z,6.85
2022-12-25T10:27:52.679Z,8.32
2022-12-25T10:30:24.038Z,7.53
2022-12-25T10:32:54.829Z,8.93
2022-12-25T10:35:27.024Z,11.50
2022-12-25T10:38:02.040Z,11.43
2022-12-25T10:40:40.663Z,9.63
2022-12-25T10:43:14.190Z,7.70
2022-12-25T10:45:48.156Z,9.00
2022-12-25T10:48:23.452Z,6.95
2022-12-25T10:50:52.800Z,9.75
2022-12-25T10:53:26.843Z,9.25
2022-12-25T10:55:57.708Z,7.40
2022-12-25T10:58:27.116Z,7.55
2022-12-25T11:00:59.626Z,8.60
2022-12-25T11:03:32.353Z,8.77
2022-12-25T11:06:03.213Z,8.82
2022-12-25T11:08:35.560Z,12.13
2022-12-25T11:11:07.845Z,7.50
2022-12-25T11:13:41.678Z,10.27
2022-12-25T11:16:15.316Z,7.97
2022-12-25T11:18:50.124Z,9.52
2022-12-25T11:21:21.262Z,11.68
2022-12-25T11:23:57.955Z,10.57
2022-12-25T11:26:29.136Z,11.27
2022-12-25T11:28:59.244Z,9.93
2022-12-25T11:31:38.552Z,9.60
2022-12-25T11:34:13.391Z,10.63
2022-12-25T11:36:47.100Z,9.52
2022-12-25T11:39:24.675Z,12.10
2022-12-25T11:41:59.233Z,11.27
2022-12-25T11:44:40.594Z,12.15
2022-12-25T11:47:17.420Z,8.70
2022-12-25T11:49:56.179Z,8.85
2022-12-25T11:52:34.220Z,8.88
2022-12-25T11:55:10.298Z,9.73
2022-12-25T11:57:41.054Z,8.65
2022-12-25T12:00:16.406Z,8.30
2022-12-25T12:02:50.730Z,6.63
2022-12-25T12:05:25.956Z,10.45
2022-12-25T12:07:59.764Z,8.52
2022-12-25T12:10:43.749Z,8.48
2022-12-25T12:13:28.812Z,9.32
2022-12-25T12:15:58.941Z,10.45
2022-12-25T12:18:33.856Z,7.68
2022-12-25T12:21:06.474Z,11.15
2022-12-25T12:23:38.799Z,13.07
2022-12-25T12:26:09.523Z,8.85
2022-12-25T12:28:46.874Z,10.10
2022-12-25T12:31:17.797Z,11.43
2022-12-25T12:33:53.974Z,9.15
2022-12-25T12:36:35.571Z,11.40
2022-12-25T12:39:07.233Z,12.40
2022-12-25T12:41:49.866Z,11.50
2022-12-25T12:44:20.199Z,11.88
2022-12-25T12:46:54.872Z,10.68
2022-12-25T12:49:27.002Z,11.40
2022-12-25T12:52:07.211Z,10.57
2022-12-25T12:54:56.552Z,11.02
2022-12-25T12:57:30.258Z,10.25
2022-12-25T13:00:08.428Z,8.95
2022-12-25T13:03:19.900Z,11.00
2022-12-25T13:05:54.590Z,9.57
2022-12-25T13:08:36.176Z,12.38
2022-12-25T13:11:12.688Z,10.77
2022-12-25T13:13:46.168Z,6.32
2022-12-25T13:16:25.395Z,17.65
2022-12-25T13:18:56.588Z,10.27
2022-12-25T13:21:27.250Z,10.98
2022-12-25T13:24:02.081Z,6.55
2022-12-25T13:26:32.236Z,7.32
2022-12-25T13:29:07.851Z,8.50
2022-12-25T13:31:43.074Z,8.13
2022-12-25T13:34:24.956Z,10.50
2022-12-25T13:36:54.296Z,7.60
2022-12-25T13:39:25.528Z,7.10
2022-12-25T13:42:07.128Z,10.02
2022-12-25T13:44:48.307Z,6.47
2022-12-25T13:47:24.192Z,6.43
2022-12-25T13:49:55.533Z,8.43
2022-12-25T13:52:29.859Z,9.02
2022-12-25T13:55:01.852Z,10.65
2022-12-25T13:57:35.254Z,8.02
2022-12-25T14:00:08.484Z,8.95
2022-12-25T14:02:39.278Z,8.88
2022-12-25T14:05:27.094Z,10.75
2022-12-25T14:07:57.036Z,11.13
2022-12-25T14:10:29.288Z,7.45
2022-12-25T14:13:01.690Z,8.25
2022-12-25T14:15:34.740Z,6.82
2022-12-25T14:18:04.420Z,8.93
2022-12-25T14:20:39.061Z,8.82
2022-12-25T14:23:09.388Z,9.40
2022-12-25T14:25:45.192Z,7.65
2022-12-25T14:28:22.002Z,6.13
2022-12-25T14:30:53.308Z,6.93
2022-12-25T14:33:25.254Z,6.10
2022-12-25T14:35:54.865Z,6.03
2022-12-25T14:38:26.602Z,7.20
2022-12-25T14:41:02.632Z,8.10
2022-12-25T14:43:33.478Z,8.40
2022-12-25T14:46:09.561Z,9.20
2022-12-25T14:48:38.893Z,12.10
2022-12-25T14:51:11.254Z,7.22
2022-12-25T14:53:48.078Z,7.22
2022-12-25T14:56:20.190Z,6.18
2022-12-25T14:58:52.593Z,4.13
2022-12-25T15:01:29.271Z,5.18
2022-12-25T15:04:10.099Z,5.15
2022-12-25T15:06:41.759Z,5.40
2022-12-25T15:09:17.819Z,6.80
2022-12-25T15:11:50.108Z,5.72
2022-12-25T15:14:19.740Z,6.88
2022-12-25T15:16:52.434Z,7.22
2022-12-25T15:19:26.620Z,6.38
2022-12-25T15:21:57.867Z,8.32
2022-12-25T15:24:27.242Z,7.55
2022-12-25T15:27:00.857Z,8.40
2022-12-25T15:30:07.852Z,7.07
2022-12-25T15:32:22.889Z,8.50
2022-12-25T15:34:53.469Z,8.15
2022-12-25T15:37:22.540Z,7.68
2022-12-25T15:39:51.632Z,8.50
2022-12-25T15:42:25.359Z,7.88
2022-12-25T15:44:54.475Z,7.32
2022-12-25T15:47:25.600Z,9.43
2022-12-25T15:49:57.130Z,6.90
2022-12-25T15:52:26.256Z,6.95
2022-12-25T15:54:55.395Z,6.85
2022-12-25T15:57:26.738Z,6.47
2022-12-25T15:59:55.916Z,6.55
2022-12-25T16:02:27.989Z,8.13
2022-12-25T16:04:57.273Z,6.30
2022-12-25T16:07:28.080Z,5.88
2022-12-25T16:09:57.210Z,7.63
2022-12-25T16:12:26.279Z,7.15
2022-12-25T16:14:55.517Z,9.50
2022-12-25T16:17:26.156Z,12.90
2022-12-25T16:19:55.317Z,8.82
2022-12-25T16:22:26.543Z,8.65
2022-12-25T16:24:56.108Z,9.00
2022-12-25T16:27:25.652Z,7.80
2022-12-25T16:29:56.075Z,8.52
2022-12-25T16:32:26.841Z,7.50
2022-12-25T16:34:56.032Z,7.53
2022-12-25T16:37:25.332Z,6.80
2022-12-25T16:39:54.608Z,7.18
2022-12-25T16:42:23.876Z,7.60
2022-12-25T16:44:53.182Z,5.82
2022-12-25T16:47:22.663Z,6.03
2022-12-25T16:49:53.510Z,6.57
2022-12-25T16:52:22.865Z,6.57
2022-12-25T16:54:52.161Z,6.07
2022-12-25T16:57:21.421Z,6.38
2022-12-25T16:59:50.751Z,5.10
2022-12-25T17:02:22.219Z,6.50
2022-12-25T17:04:53.115Z,11.60
2022-12-25T17:07:22.510Z,6.50
2022-12-25T17:09:52.291Z,5.63
2022-12-25T17:12:21.545Z,5.00
2022-12-25T17:14:50.763Z,5.65
2022-12-25T17:17:20.014Z,5.15
2022-12-25T17:19:49.418Z,5.95
2022-12-25T17:22:20.136Z,6.68
2022-12-25T17:24:49.438Z,6.35
2022-12-25T17:27:19.134Z,6.63
2022-12-25T17:29:50.155Z,5.82
2022-12-25T17:32:19.453Z,7.20
2022-12-25T17:34:49.376Z,6.55
2022-12-25T17:37:20.189Z,5.93
2022-12-25T17:39:49.648Z,5.20
2022-12-25T17:42:18.932Z,20.65
2022-12-25T17:44:48.757Z,5.43
2022-12-25T17:47:17.965Z,6.55
2022-12-25T17:49:47.159Z,5.63
2022-12-25T17:52:16.351Z,5.82
2022-12-25T17:54:47.148Z,4.75
2022-12-25T17:57:16.419Z,5.95
2022-12-25T17:59:45.734Z,4.78
2022-12-25T18:02:15.111Z,4.70
2022-12-25T18:04:44.362Z,4.72
2022-12-25T18:07:14.800Z,4.43
2022-12-25T18:09:44.117Z,5.22
2022-12-25T18:12:14.876Z,5.13
2022-12-25T18:14:44.242Z,5.38
2022-12-25T18:17:13.464Z,5.35
2022-12-25T18:19:42.685Z,4.03
2022-12-25T18:22:11.931Z,4.57
2022-12-25T18:24:41.519Z,4.47
2022-12-25T18:27:10.770Z,4.57
2022-12-25T18:29:41.650Z,4.40
2022-12-25T18:32:11.048Z,5.05
2022-12-25T18:34:40.298Z,3.35
2022-12-25T18:37:09.565Z,4.45
2022-12-25T18:39:38.801Z,4.97
2022-12-25T18:42:25.337Z,5.93
2022-12-25T18:44:56.178Z,4.75
2022-12-25T18:47:25.564Z,5.22
2022-12-25T18:49:54.982Z,4.20
2022-12-25T18:52:47.809Z,4.18
2022-12-25T18:55:13.550Z,4.50
2022-12-25T18:57:42.798Z,5.35
2022-12-25T19:00:14.199Z,3.90
2022-12-25T19:02:43.638Z,4.45
2022-12-25T19:05:12.980Z,4.75
2022-12-25T19:07:42.256Z,4.72
2022-12-25T19:10:12.098Z,4.97
2022-12-25T19:12:41.311Z,4.55
2022-12-25T19:15:11.394Z,4.78
2022-12-25T19:17:42.191Z,4.28
2022-12-25T19:20:13.329Z,3.97
2022-12-25T19:22:42.586Z,5.38
2022-12-25T19:25:12.251Z,4.47
2022-12-25T19:27:41.466Z,4.57
2022-12-25T19:30:12.449Z,4.18
2022-12-25T19:32:43.160Z,5.22
2022-12-25T19:35:12.501Z,4.20
2022-12-25T19:37:41.755Z,4.45
2022-12-25T19:40:11.872Z,4.60
2022-12-25T19:42:41.157Z,4.40
2022-12-25T19:45:11.307Z,4.55
2022-12-25T19:47:44.749Z,4.75
2022-12-25T19:50:13.963Z,4.60
2022-12-25T19:52:44.786Z,4.93
2022-12-25T19:55:14.031Z,4.20
2022-12-25T19:57:43.296Z,5.00
2022-12-25T20:00:13.100Z,4.97
2022-12-25T20:02:44.002Z,5.00
2022-12-25T20:05:13.281Z,4.43
2022-12-25T20:07:42.494Z,3.25
2022-12-25T20:10:12.074Z,3.85
2022-12-25T20:12:41.294Z,5.13
2022-12-25T20:15:11.531Z,3.60
2022-12-25T20:17:40.749Z,4.28
2022-12-25T20:20:12.625Z,4.22
2022-12-25T20:22:41.869Z,3.25
2022-12-25T20:25:11.853Z,3.60
2022-12-25T20:27:41.087Z,3.40
2022-12-25T20:30:11.176Z,3.33
2022-12-25T20:32:43.721Z,3.42
2022-12-25T20:35:19.472Z,3.80
2022-12-25T20:37:48.687Z,3.72
2022-12-25T20:40:18.026Z,3.88
2022-12-25T20:42:47.189Z,3.38
2022-12-25T20:45:16.500Z,3.33
2022-12-25T20:47:45.683Z,3.25
2022-12-25T20:50:14.905Z,3.33
2022-12-25T20:52:45.782Z,3.60
2022-12-25T20:55:15.159Z,3.47
2022-12-25T20:57:44.403Z,4.05
2022-12-25T21:00:15.358Z,3.33
2022-12-25T21:02:45.029Z,2.85
2022-12-25T21:05:14.385Z,3.53
2022-12-25T21:07:45.143Z,3.08
2022-12-25T21:10:14.411Z,3.95
2022-12-25T21:12:43.616Z,3.72
2022-12-25T21:15:15.736Z,3.08
2022-12-25T21:17:45.287Z,4.72
2022-12-25T21:20:14.605Z,3.70
2022-12-25T21:22:45.532Z,4.88
2022-12-25T21:25:14.783Z,3.85
2022-12-25T21:27:43.983Z,3.58
2022-12-25T21:30:15.217Z,3.88
2022-12-25T21:33:01.906Z,3.47
2022-12-25T21:35:31.218Z,3.92
2022-12-25T21:38:02.052Z,4.10
2022-12-25T21:40:31.505Z,4.22
2022-12-25T21:43:00.992Z,3.55
2022-12-25T21:45:30.468Z,4.05
2022-12-25T21:48:02.957Z,3.70
2022-12-25T21:50:49.636Z,3.80
2022-12-25T21:53:21.490Z,3.95
2022-12-25T21:56:02.641Z,3.40
2022-12-25T21:58:32.113Z,3.83
2022-12-25T22:01:04.728Z,3.53
2022-12-25T22:03:34.054Z,4.15
2022-12-25T22:06:21.826Z,3.65
2022-12-25T22:08:52.730Z,4.10
2022-12-25T22:11:39.033Z,3.72
2022-12-25T22:14:52.316Z,4.82
2022-12-25T22:17:32.091Z,4.32
2022-12-25T22:20:01.594Z,4.07
2022-12-25T22:22:32.563Z,5.15
2022-12-25T22:25:05.603Z,5.53
2022-12-25T22:27:35.897Z,4.72
2022-12-25T22:30:05.923Z,4.35
2022-12-25T22:32:35.990Z,4.75
2022-12-25T22:35:05.695Z,3.75
2022-12-25T22:37:36.341Z,3.95
2022-12-25T22:40:08.461Z,4.57
2022-12-25T22:42:37.832Z,4.95
2022-12-25T22:45:07.774Z,5.03
2022-12-25T22:47:37.223Z,6.22
2022-12-25T22:50:07.045Z,4.75
2022-12-25T22:52:36.325Z,4.00
2022-12-25T22:55:09.054Z,5.28
2022-12-25T22:57:38.675Z,4.93
2022-12-25T23:00:10.501Z,4.22
2022-12-25T23:02:39.996Z,3.55
2022-12-25T23:05:09.937Z,3.92
2022-12-25T23:07:39.223Z,4.50
2022-12-25T23:10:11.820Z,4.10
2022-12-25T23:12:57.897Z,4.25
2022-12-25T23:15:28.029Z,4.65
2022-12-25T23:18:14.266Z,4.90
2022-12-25T23:21:05.870Z,4.78
2022-12-25T23:23:52.065Z,4.80
2022-12-25T23:26:23.422Z,4.53
2022-12-25T23:29:09.600Z,4.95
2022-12-25T23:31:41.467Z,5.25
2022-12-25T23:34:10.979Z,3.47
2022-12-25T23:36:40.202Z,3.67
2022-12-25T23:39:10.591Z,4.18
2022-12-25T23:41:43.515Z,4.68
2022-12-25T23:44:14.507Z,4.03
2022-12-25T23:46:52.918Z,4.18
2022-12-25T23:49:23.168Z,4.05
2022-12-25T23:51:53.099Z,4.95
2022-12-25T23:54:24.684Z,4.85
2022-12-25T23:56:57.747Z,5.38
2022-12-25T23:59:27.098Z,6.43
